Terminal Aerodrome Forecast
Issued by NWS Paducah, KY

Current Version | Previous Version | Text Only | Print | Product List | Glossary On
Versions: 1 2 3 4 5 6 7 8 9 10 11 12 13 14 15 16 17 18
761
FTUS43 KPAH 270631 AAA
TAFEVV
TAF AMD
KEVV 270631Z 2707/2806 VRB03KT P6SM VCSH SCT050 BKN250
      TEMPO 2707/2708 4SM -TSRA BKN035CB
     FM270900 00000KT 5SM BR SCT100 BKN200
     FM271400 VRB04KT P6SM SCT045=

USA.gov is the U.S. government's official web portal to all federal, state and local government web resources and services.